sensor_id;sensor_type;location;lat;lon;timestamp;temperature;humidity
48416;DHT22;34227;51.840;4.146;2023-08-06T00:00:24;16.80;98.90
48416;DHT22;34227;51.840;4.146;2023-08-06T00:02:50;16.80;99.00
48416;DHT22;34227;51.840;4.146;2023-08-06T00:05:16;16.80;99.00
48416;DHT22;34227;51.840;4.146;2023-08-06T00:07:49;16.80;99.00
48416;DHT22;34227;51.840;4.146;2023-08-06T00:10:15;16.80;99.00
48416;DHT22;34227;51.840;4.146;2023-08-06T00:12:41;16.80;98.90
48416;DHT22;34227;51.840;4.146;2023-08-06T00:15:06;16.80;98.90
48416;DHT22;34227;51.840;4.146;2023-08-06T00:17:35;16.80;98.90
48416;DHT22;34227;51.840;4.146;2023-08-06T00:20:01;16.80;98.90
48416;DHT22;34227;51.840;4.146;2023-08-06T00:22:35;16.80;98.80
48416;DHT22;34227;51.840;4.146;2023-08-06T00:25:01;16.80;98.80
48416;DHT22;34227;51.840;4.146;2023-08-06T00:27:27;16.80;98.80
48416;DHT22;34227;51.840;4.146;2023-08-06T00:29:52;16.80;98.90
48416;DHT22;34227;51.840;4.146;2023-08-06T00:32:18;16.80;98.90
48416;DHT22;34227;51.840;4.146;2023-08-06T00:34:43;16.80;99.00
48416;DHT22;34227;51.840;4.146;2023-08-06T00:37:09;16.80;99.10
48416;DHT22;34227;51.840;4.146;2023-08-06T00:39:35;16.80;99.20
48416;DHT22;34227;51.840;4.146;2023-08-06T00:42:00;16.80;99.20
48416;DHT22;34227;51.840;4.146;2023-08-06T00:44:26;16.80;99.30
48416;DHT22;34227;51.840;4.146;2023-08-06T00:46:51;16.80;99.20
48416;DHT22;34227;51.840;4.146;2023-08-06T00:49:17;16.80;99.10
48416;DHT22;34227;51.840;4.146;2023-08-06T00:51:42;16.80;99.10
48416;DHT22;34227;51.840;4.146;2023-08-06T00:54:08;16.80;99.10
48416;DHT22;34227;51.840;4.146;2023-08-06T00:56:34;16.80;99.10
48416;DHT22;34227;51.840;4.146;2023-08-06T00:59:01;16.80;99.10
48416;DHT22;34227;51.840;4.146;2023-08-06T01:01:26;16.80;99.00
48416;DHT22;34227;51.840;4.146;2023-08-06T01:03:53;16.80;99.20
48416;DHT22;34227;51.840;4.146;2023-08-06T01:06:22;16.80;99.30
48416;DHT22;34227;51.840;4.146;2023-08-06T01:08:54;16.80;99.30
48416;DHT22;34227;51.840;4.146;2023-08-06T01:13:47;16.80;99.40
48416;DHT22;34227;51.840;4.146;2023-08-06T01:16:14;16.80;99.40
48416;DHT22;34227;51.840;4.146;2023-08-06T01:18:40;16.80;99.40
48416;DHT22;34227;51.840;4.146;2023-08-06T01:21:07;16.80;99.50
48416;DHT22;34227;51.840;4.146;2023-08-06T01:23:32;16.80;99.50
48416;DHT22;34227;51.840;4.146;2023-08-06T01:28:45;16.70;99.60
48416;DHT22;34227;51.840;4.146;2023-08-06T01:31:24;16.70;99.70
48416;DHT22;34227;51.840;4.146;2023-08-06T01:33:51;16.70;99.70
48416;DHT22;34227;51.840;4.146;2023-08-06T01:36:19;16.70;99.70
48416;DHT22;34227;51.840;4.146;2023-08-06T01:38:45;16.70;99.80
48416;DHT22;34227;51.840;4.146;2023-08-06T01:41:11;16.60;99.90
48416;DHT22;34227;51.840;4.146;2023-08-06T01:43:37;16.60;99.90
48416;DHT22;34227;51.840;4.146;2023-08-06T01:46:02;16.60;99.90
48416;DHT22;34227;51.840;4.146;2023-08-06T01:48:28;16.60;99.90
48416;DHT22;34227;51.840;4.146;2023-08-06T01:50:53;16.60;99.90
48416;DHT22;34227;51.840;4.146;2023-08-06T01:53:19;16.60;99.90
48416;DHT22;34227;51.840;4.146;2023-08-06T01:55:47;16.60;99.90
48416;DHT22;34227;51.840;4.146;2023-08-06T01:58:13;16.60;99.90
48416;DHT22;34227;51.840;4.146;2023-08-06T02:00:38;16.50;99.90
48416;DHT22;34227;51.840;4.146;2023-08-06T02:03:04;16.50;99.90
48416;DHT22;34227;51.840;4.146;2023-08-06T02:05:29;16.50;99.90
48416;DHT22;34227;51.840;4.146;2023-08-06T02:07:55;16.50;99.90
48416;DHT22;34227;51.840;4.146;2023-08-06T02:10:20;16.50;99.90
48416;DHT22;34227;51.840;4.146;2023-08-06T02:12:46;16.50;99.90
48416;DHT22;34227;51.840;4.146;2023-08-06T02:15:12;16.50;99.90
48416;DHT22;34227;51.840;4.146;2023-08-06T02:17:37;16.50;99.90
48416;DHT22;34227;51.840;4.146;2023-08-06T02:20:03;16.50;99.90
48416;DHT22;34227;51.840;4.146;2023-08-06T02:22:28;16.40;99.90
48416;DHT22;34227;51.840;4.146;2023-08-06T02:24:54;16.50;99.90
48416;DHT22;34227;51.840;4.146;2023-08-06T02:27:19;16.40;99.90
48416;DHT22;34227;51.840;4.146;2023-08-06T02:29:45;16.40;99.90
48416;DHT22;34227;51.840;4.146;2023-08-06T02:32:10;16.40;99.90
48416;DHT22;34227;51.840;4.146;2023-08-06T02:34:36;16.40;99.90
48416;DHT22;34227;51.840;4.146;2023-08-06T02:37:01;16.40;99.90
48416;DHT22;34227;51.840;4.146;2023-08-06T02:39:27;16.40;99.90
48416;DHT22;34227;51.840;4.146;2023-08-06T02:41:52;16.40;99.90
48416;DHT22;34227;51.840;4.146;2023-08-06T02:44:18;16.40;99.90
48416;DHT22;34227;51.840;4.146;2023-08-06T02:46:44;16.40;99.90
48416;DHT22;34227;51.840;4.146;2023-08-06T02:49:13;16.30;99.90
48416;DHT22;34227;51.840;4.146;2023-08-06T02:51:47;16.40;99.90
48416;DHT22;34227;51.840;4.146;2023-08-06T02:54:13;16.30;99.90
48416;DHT22;34227;51.840;4.146;2023-08-06T02:56:39;16.30;99.90
48416;DHT22;34227;51.840;4.146;2023-08-06T02:59:07;16.30;99.90
48416;DHT22;34227;51.840;4.146;2023-08-06T03:01:33;16.30;99.90
48416;DHT22;34227;51.840;4.146;2023-08-06T03:03:59;16.30;99.90
48416;DHT22;34227;51.840;4.146;2023-08-06T03:06:24;16.30;99.90
48416;DHT22;34227;51.840;4.146;2023-08-06T03:08:50;16.30;99.90
48416;DHT22;34227;51.840;4.146;2023-08-06T03:11:15;16.30;99.90
48416;DHT22;34227;51.840;4.146;2023-08-06T03:13:41;16.20;99.90
48416;DHT22;34227;51.840;4.146;2023-08-06T03:16:06;16.20;99.90
48416;DHT22;34227;51.840;4.146;2023-08-06T03:18:32;16.20;99.90
48416;DHT22;34227;51.840;4.146;2023-08-06T03:20:57;16.20;99.90
48416;DHT22;34227;51.840;4.146;2023-08-06T03:23:23;16.20;99.90
48416;DHT22;34227;51.840;4.146;2023-08-06T03:25:49;16.20;99.90
48416;DHT22;34227;51.840;4.146;2023-08-06T03:28:14;16.20;99.90
48416;DHT22;34227;51.840;4.146;2023-08-06T03:30:40;16.10;99.90
48416;DHT22;34227;51.840;4.146;2023-08-06T03:33:05;16.10;99.90
48416;DHT22;34227;51.840;4.146;2023-08-06T03:35:31;16.10;99.90
48416;DHT22;34227;51.840;4.146;2023-08-06T03:37:56;16.10;99.90
48416;DHT22;34227;51.840;4.146;2023-08-06T03:40:22;16.00;99.90
48416;DHT22;34227;51.840;4.146;2023-08-06T03:42:48;16.10;99.90
48416;DHT22;34227;51.840;4.146;2023-08-06T03:45:13;16.00;99.90
48416;DHT22;34227;51.840;4.146;2023-08-06T03:47:39;16.00;99.90
48416;DHT22;34227;51.840;4.146;2023-08-06T03:50:04;16.00;99.90
48416;DHT22;34227;51.840;4.146;2023-08-06T03:52:30;16.00;99.90
48416;DHT22;34227;51.840;4.146;2023-08-06T03:54:55;15.90;99.90
48416;DHT22;34227;51.840;4.146;2023-08-06T03:57:21;15.90;99.90
48416;DHT22;34227;51.840;4.146;2023-08-06T03:59:46;15.90;99.90
48416;DHT22;34227;51.840;4.146;2023-08-06T04:02:12;15.90;99.90
48416;DHT22;34227;51.840;4.146;2023-08-06T04:04:37;15.90;99.90
48416;DHT22;34227;51.840;4.146;2023-08-06T04:07:03;15.80;99.90
48416;DHT22;34227;51.840;4.146;2023-08-06T04:09:29;15.80;99.90
48416;DHT22;34227;51.840;4.146;2023-08-06T04:11:54;15.90;99.90
48416;DHT22;34227;51.840;4.146;2023-08-06T04:14:21;15.80;99.90
48416;DHT22;34227;51.840;4.146;2023-08-06T04:16:46;15.80;99.90
48416;DHT22;34227;51.840;4.146;2023-08-06T04:19:14;15.80;99.90
48416;DHT22;34227;51.840;4.146;2023-08-06T04:21:40;15.80;99.90
48416;DHT22;34227;51.840;4.146;2023-08-06T04:24:06;15.80;99.90
48416;DHT22;34227;51.840;4.146;2023-08-06T04:26:31;15.70;99.90
48416;DHT22;34227;51.840;4.146;2023-08-06T04:28:57;15.70;99.90
48416;DHT22;34227;51.840;4.146;2023-08-06T04:31:22;15.70;99.90
48416;DHT22;34227;51.840;4.146;2023-08-06T04:33:48;15.70;99.90
48416;DHT22;34227;51.840;4.146;2023-08-06T04:36:14;15.70;99.90
48416;DHT22;34227;51.840;4.146;2023-08-06T04:38:39;15.70;99.90
48416;DHT22;34227;51.840;4.146;2023-08-06T04:41:09;15.70;99.90
48416;DHT22;34227;51.840;4.146;2023-08-06T04:43:35;15.70;99.90
48416;DHT22;34227;51.840;4.146;2023-08-06T04:46:00;15.60;99.90
48416;DHT22;34227;51.840;4.146;2023-08-06T04:48:26;15.60;99.90
48416;DHT22;34227;51.840;4.146;2023-08-06T04:50:54;15.60;99.90
48416;DHT22;34227;51.840;4.146;2023-08-06T04:53:20;15.60;99.90
48416;DHT22;34227;51.840;4.146;2023-08-06T04:55:45;15.60;99.90
48416;DHT22;34227;51.840;4.146;2023-08-06T04:58:12;15.60;99.90
48416;DHT22;34227;51.840;4.146;2023-08-06T05:00:37;15.60;99.90
48416;DHT22;34227;51.840;4.146;2023-08-06T05:03:03;15.60;99.90
48416;DHT22;34227;51.840;4.146;2023-08-06T05:05:28;15.50;99.90
48416;DHT22;34227;51.840;4.146;2023-08-06T05:07:54;15.50;99.90
48416;DHT22;34227;51.840;4.146;2023-08-06T05:10:21;15.50;99.90
48416;DHT22;34227;51.840;4.146;2023-08-06T05:12:46;15.50;99.90
48416;DHT22;34227;51.840;4.146;2023-08-06T05:15:15;15.50;99.90
48416;DHT22;34227;51.840;4.146;2023-08-06T05:17:41;15.50;99.90
48416;DHT22;34227;51.840;4.146;2023-08-06T05:20:06;15.50;99.90
48416;DHT22;34227;51.840;4.146;2023-08-06T05:22:32;15.50;99.90
48416;DHT22;34227;51.840;4.146;2023-08-06T05:24:57;15.50;99.90
48416;DHT22;34227;51.840;4.146;2023-08-06T05:27:23;15.40;99.90
48416;DHT22;34227;51.840;4.146;2023-08-06T05:29:49;15.40;99.90
48416;DHT22;34227;51.840;4.146;2023-08-06T05:32:14;15.40;99.90
48416;DHT22;34227;51.840;4.146;2023-08-06T05:34:40;15.40;99.90
48416;DHT22;34227;51.840;4.146;2023-08-06T05:37:06;15.40;99.90
48416;DHT22;34227;51.840;4.146;2023-08-06T05:39:32;15.40;99.90
48416;DHT22;34227;51.840;4.146;2023-08-06T05:41:58;15.40;99.90
48416;DHT22;34227;51.840;4.146;2023-08-06T05:44:23;15.40;99.90
48416;DHT22;34227;51.840;4.146;2023-08-06T05:46:49;15.30;99.90
48416;DHT22;34227;51.840;4.146;2023-08-06T05:49:15;15.30;99.90
48416;DHT22;34227;51.840;4.146;2023-08-06T05:51:43;15.30;99.90
48416;DHT22;34227;51.840;4.146;2023-08-06T05:54:09;15.30;99.90
48416;DHT22;34227;51.840;4.146;2023-08-06T05:56:34;15.30;99.90
48416;DHT22;34227;51.840;4.146;2023-08-06T05:59:00;15.30;99.90
48416;DHT22;34227;51.840;4.146;2023-08-06T06:01:25;15.30;99.90
48416;DHT22;34227;51.840;4.146;2023-08-06T06:03:51;15.30;99.90
48416;DHT22;34227;51.840;4.146;2023-08-06T06:06:16;15.30;99.90
48416;DHT22;34227;51.840;4.146;2023-08-06T06:08:44;15.20;99.90
48416;DHT22;34227;51.840;4.146;2023-08-06T06:11:09;15.30;99.90
48416;DHT22;34227;51.840;4.146;2023-08-06T06:13:35;15.20;99.90
48416;DHT22;34227;51.840;4.146;2023-08-06T06:16:00;15.20;99.90
48416;DHT22;34227;51.840;4.146;2023-08-06T06:18:26;15.20;99.90
48416;DHT22;34227;51.840;4.146;2023-08-06T06:20:52;15.20;99.90
48416;DHT22;34227;51.840;4.146;2023-08-06T06:23:18;15.20;99.90
48416;DHT22;34227;51.840;4.146;2023-08-06T06:25:47;15.20;99.90
48416;DHT22;34227;51.840;4.146;2023-08-06T06:28:13;15.20;99.90
48416;DHT22;34227;51.840;4.146;2023-08-06T06:30:38;15.20;99.90
48416;DHT22;34227;51.840;4.146;2023-08-06T06:33:04;15.20;99.90
48416;DHT22;34227;51.840;4.146;2023-08-06T06:35:30;15.20;99.90
48416;DHT22;34227;51.840;4.146;2023-08-06T06:37:55;15.20;99.90
48416;DHT22;34227;51.840;4.146;2023-08-06T06:40:21;15.20;99.90
48416;DHT22;34227;51.840;4.146;2023-08-06T06:42:46;15.20;99.90
48416;DHT22;34227;51.840;4.146;2023-08-06T06:45:12;15.30;99.90
48416;DHT22;34227;51.840;4.146;2023-08-06T06:47:37;15.30;99.90
48416;DHT22;34227;51.840;4.146;2023-08-06T06:50:03;15.30;99.90
48416;DHT22;34227;51.840;4.146;2023-08-06T06:52:29;15.30;99.90
48416;DHT22;34227;51.840;4.146;2023-08-06T06:54:54;15.30;99.90
48416;DHT22;34227;51.840;4.146;2023-08-06T06:57:20;15.30;99.90
48416;DHT22;34227;51.840;4.146;2023-08-06T06:59:45;15.30;99.90
48416;DHT22;34227;51.840;4.146;2023-08-06T07:02:11;15.40;99.90
48416;DHT22;34227;51.840;4.146;2023-08-06T07:04:37;15.30;99.90
48416;DHT22;34227;51.840;4.146;2023-08-06T07:07:02;15.40;99.90
48416;DHT22;34227;51.840;4.146;2023-08-06T07:09:28;15.40;99.90
48416;DHT22;34227;51.840;4.146;2023-08-06T07:11:54;15.40;99.90
48416;DHT22;34227;51.840;4.146;2023-08-06T07:14:19;15.40;99.90
48416;DHT22;34227;51.840;4.146;2023-08-06T07:16:45;15.50;99.90
48416;DHT22;34227;51.840;4.146;2023-08-06T07:19:19;15.50;99.90
48416;DHT22;34227;51.840;4.146;2023-08-06T07:21:45;15.50;99.90
48416;DHT22;34227;51.840;4.146;2023-08-06T07:24:11;15.60;99.90
48416;DHT22;34227;51.840;4.146;2023-08-06T07:26:37;15.70;99.90
48416;DHT22;34227;51.840;4.146;2023-08-06T07:29:02;15.70;99.90
48416;DHT22;34227;51.840;4.146;2023-08-06T07:31:28;15.80;99.90
48416;DHT22;34227;51.840;4.146;2023-08-06T07:33:54;15.80;99.90
48416;DHT22;34227;51.840;4.146;2023-08-06T07:36:20;15.90;99.90
48416;DHT22;34227;51.840;4.146;2023-08-06T07:38:45;16.00;99.90
48416;DHT22;34227;51.840;4.146;2023-08-06T07:41:11;16.10;99.90
48416;DHT22;34227;51.840;4.146;2023-08-06T07:43:36;16.10;99.90
48416;DHT22;34227;51.840;4.146;2023-08-06T07:46:02;16.20;99.90
48416;DHT22;34227;51.840;4.146;2023-08-06T07:48:28;16.30;99.90
48416;DHT22;34227;51.840;4.146;2023-08-06T07:50:56;16.40;99.90
48416;DHT22;34227;51.840;4.146;2023-08-06T07:53:22;16.50;99.90
48416;DHT22;34227;51.840;4.146;2023-08-06T07:55:51;16.60;99.90
48416;DHT22;34227;51.840;4.146;2023-08-06T07:58:18;16.70;99.90
48416;DHT22;34227;51.840;4.146;2023-08-06T08:00:43;16.80;99.90
48416;DHT22;34227;51.840;4.146;2023-08-06T08:03:11;16.90;99.90
48416;DHT22;34227;51.840;4.146;2023-08-06T08:05:37;17.00;99.90
48416;DHT22;34227;51.840;4.146;2023-08-06T08:08:03;17.10;99.90
48416;DHT22;34227;51.840;4.146;2023-08-06T08:10:28;17.20;99.90
48416;DHT22;34227;51.840;4.146;2023-08-06T08:12:54;17.40;99.90
48416;DHT22;34227;51.840;4.146;2023-08-06T08:15:19;17.50;99.90
48416;DHT22;34227;51.840;4.146;2023-08-06T08:17:45;17.50;99.90
48416;DHT22;34227;51.840;4.146;2023-08-06T08:20:12;17.60;99.90
48416;DHT22;34227;51.840;4.146;2023-08-06T08:22:38;17.70;99.90
48416;DHT22;34227;51.840;4.146;2023-08-06T08:25:04;17.70;99.90
48416;DHT22;34227;51.840;4.146;2023-08-06T08:27:29;17.70;99.90
48416;DHT22;34227;51.840;4.146;2023-08-06T08:29:56;17.80;99.90
48416;DHT22;34227;51.840;4.146;2023-08-06T08:32:21;17.80;99.90
48416;DHT22;34227;51.840;4.146;2023-08-06T08:34:47;17.90;99.90
48416;DHT22;34227;51.840;4.146;2023-08-06T08:37:13;17.90;99.90
48416;DHT22;34227;51.840;4.146;2023-08-06T08:39:39;18.00;99.90
48416;DHT22;34227;51.840;4.146;2023-08-06T08:42:05;18.00;99.90
48416;DHT22;34227;51.840;4.146;2023-08-06T08:44:32;18.10;99.90
48416;DHT22;34227;51.840;4.146;2023-08-06T08:47:01;18.10;99.90
48416;DHT22;34227;51.840;4.146;2023-08-06T08:49:27;18.20;99.90
48416;DHT22;34227;51.840;4.146;2023-08-06T08:51:55;18.20;99.90
48416;DHT22;34227;51.840;4.146;2023-08-06T08:54:22;18.30;99.90
48416;DHT22;34227;51.840;4.146;2023-08-06T08:56:48;18.30;99.90
48416;DHT22;34227;51.840;4.146;2023-08-06T08:59:14;18.40;99.90
48416;DHT22;34227;51.840;4.146;2023-08-06T09:01:39;18.50;99.90
48416;DHT22;34227;51.840;4.146;2023-08-06T09:04:05;18.60;99.80
48416;DHT22;34227;51.840;4.146;2023-08-06T09:06:32;18.70;99.60
48416;DHT22;34227;51.840;4.146;2023-08-06T09:09:09;18.70;99.50
48416;DHT22;34227;51.840;4.146;2023-08-06T09:11:37;18.80;99.50
48416;DHT22;34227;51.840;4.146;2023-08-06T09:14:06;18.90;99.40
48416;DHT22;34227;51.840;4.146;2023-08-06T09:16:36;18.90;99.40
48416;DHT22;34227;51.840;4.146;2023-08-06T09:19:18;19.10;99.30
48416;DHT22;34227;51.840;4.146;2023-08-06T09:21:46;19.20;99.30
48416;DHT22;34227;51.840;4.146;2023-08-06T09:24:15;19.30;99.20
48416;DHT22;34227;51.840;4.146;2023-08-06T09:26:41;19.40;99.20
48416;DHT22;34227;51.840;4.146;2023-08-06T09:29:07;19.50;99.50
48416;DHT22;34227;51.840;4.146;2023-08-06T09:31:36;19.60;99.30
48416;DHT22;34227;51.840;4.146;2023-08-06T09:34:06;19.90;99.50
48416;DHT22;34227;51.840;4.146;2023-08-06T09:36:48;20.10;99.40
48416;DHT22;34227;51.840;4.146;2023-08-06T09:39:14;20.40;99.30
48416;DHT22;34227;51.840;4.146;2023-08-06T09:41:41;20.60;99.00
48416;DHT22;34227;51.840;4.146;2023-08-06T09:44:13;20.90;98.80
48416;DHT22;34227;51.840;4.146;2023-08-06T09:46:40;21.10;98.50
48416;DHT22;34227;51.840;4.146;2023-08-06T09:49:06;21.20;98.10
48416;DHT22;34227;51.840;4.146;2023-08-06T09:51:33;21.30;97.80
48416;DHT22;34227;51.840;4.146;2023-08-06T09:54:00;21.40;97.50
48416;DHT22;34227;51.840;4.146;2023-08-06T09:56:26;21.50;97.30
48416;DHT22;34227;51.840;4.146;2023-08-06T09:58:52;21.50;97.10
48416;DHT22;34227;51.840;4.146;2023-08-06T10:01:18;21.60;97.10
48416;DHT22;34227;51.840;4.146;2023-08-06T10:03:44;21.60;96.90
48416;DHT22;34227;51.840;4.146;2023-08-06T10:06:10;21.60;96.60
48416;DHT22;34227;51.840;4.146;2023-08-06T10:08:35;21.60;96.60
48416;DHT22;34227;51.840;4.146;2023-08-06T10:11:02;21.70;96.50
48416;DHT22;34227;51.840;4.146;2023-08-06T10:13:30;21.70;96.50
48416;DHT22;34227;51.840;4.146;2023-08-06T10:15:55;21.60;96.40
48416;DHT22;34227;51.840;4.146;2023-08-06T10:18:21;21.60;96.10
48416;DHT22;34227;51.840;4.146;2023-08-06T10:20:50;21.60;96.20
48416;DHT22;34227;51.840;4.146;2023-08-06T10:23:15;21.60;96.10
48416;DHT22;34227;51.840;4.146;2023-08-06T10:25:42;21.60;96.00
48416;DHT22;34227;51.840;4.146;2023-08-06T10:28:09;21.60;95.90
48416;DHT22;34227;51.840;4.146;2023-08-06T10:30:41;21.50;95.90
48416;DHT22;34227;51.840;4.146;2023-08-06T10:33:06;21.50;95.80
48416;DHT22;34227;51.840;4.146;2023-08-06T10:35:46;21.50;95.80
48416;DHT22;34227;51.840;4.146;2023-08-06T10:38:21;21.50;95.80
48416;DHT22;34227;51.840;4.146;2023-08-06T10:41:00;21.40;95.80
48416;DHT22;34227;51.840;4.146;2023-08-06T10:43:36;21.50;95.80
48416;DHT22;34227;51.840;4.146;2023-08-06T10:46:11;21.40;96.00
48416;DHT22;34227;51.840;4.146;2023-08-06T10:48:41;21.50;95.90
48416;DHT22;34227;51.840;4.146;2023-08-06T10:51:13;21.50;95.90
48416;DHT22;34227;51.840;4.146;2023-08-06T10:53:42;21.60;95.80
48416;DHT22;34227;51.840;4.146;2023-08-06T10:56:15;21.60;95.90
48416;DHT22;34227;51.840;4.146;2023-08-06T10:58:41;21.60;95.80
48416;DHT22;34227;51.840;4.146;2023-08-06T11:01:07;21.70;95.90
48416;DHT22;34227;51.840;4.146;2023-08-06T11:03:33;21.80;95.80
48416;DHT22;34227;51.840;4.146;2023-08-06T11:06:00;21.80;95.70
48416;DHT22;34227;51.840;4.146;2023-08-06T11:08:26;21.80;95.60
48416;DHT22;34227;51.840;4.146;2023-08-06T11:10:52;21.90;95.60
48416;DHT22;34227;51.840;4.146;2023-08-06T11:13:18;21.90;95.40
48416;DHT22;34227;51.840;4.146;2023-08-06T11:15:45;22.00;95.40
48416;DHT22;34227;51.840;4.146;2023-08-06T11:18:10;22.00;95.40
48416;DHT22;34227;51.840;4.146;2023-08-06T11:20:36;22.00;95.40
48416;DHT22;34227;51.840;4.146;2023-08-06T11:23:02;22.00;95.40
48416;DHT22;34227;51.840;4.146;2023-08-06T11:25:27;22.10;95.40
48416;DHT22;34227;51.840;4.146;2023-08-06T11:27:54;22.20;95.30
48416;DHT22;34227;51.840;4.146;2023-08-06T11:30:20;22.20;94.90
48416;DHT22;34227;51.840;4.146;2023-08-06T11:32:46;22.20;95.00
48416;DHT22;34227;51.840;4.146;2023-08-06T11:35:12;22.30;95.00
48416;DHT22;34227;51.840;4.146;2023-08-06T11:37:38;22.20;94.80
48416;DHT22;34227;51.840;4.146;2023-08-06T11:40:07;22.30;94.60
48416;DHT22;34227;51.840;4.146;2023-08-06T11:42:34;22.20;94.60
48416;DHT22;34227;51.840;4.146;2023-08-06T11:45:01;22.20;94.40
48416;DHT22;34227;51.840;4.146;2023-08-06T11:47:36;22.20;94.40
48416;DHT22;34227;51.840;4.146;2023-08-06T11:50:03;22.20;94.40
48416;DHT22;34227;51.840;4.146;2023-08-06T11:52:30;22.20;94.30
48416;DHT22;34227;51.840;4.146;2023-08-06T11:57:31;22.20;94.20
48416;DHT22;34227;51.840;4.146;2023-08-06T12:00:02;22.10;94.10
48416;DHT22;34227;51.840;4.146;2023-08-06T12:02:31;22.20;94.20
48416;DHT22;34227;51.840;4.146;2023-08-06T12:07:29;22.10;94.00
48416;DHT22;34227;51.840;4.146;2023-08-06T12:09:55;22.10;94.00
48416;DHT22;34227;51.840;4.146;2023-08-06T12:12:21;22.10;94.00
48416;DHT22;34227;51.840;4.146;2023-08-06T12:14:47;22.10;93.90
48416;DHT22;34227;51.840;4.146;2023-08-06T12:17:12;22.00;93.90
48416;DHT22;34227;51.840;4.146;2023-08-06T12:19:38;22.00;93.90
48416;DHT22;34227;51.840;4.146;2023-08-06T12:22:03;22.00;93.90
48416;DHT22;34227;51.840;4.146;2023-08-06T12:24:29;22.00;93.90
48416;DHT22;34227;51.840;4.146;2023-08-06T12:26:57;22.00;94.00
48416;DHT22;34227;51.840;4.146;2023-08-06T12:29:23;21.90;93.90
48416;DHT22;34227;51.840;4.146;2023-08-06T12:31:49;21.90;93.80
48416;DHT22;34227;51.840;4.146;2023-08-06T12:34:17;21.90;93.60
48416;DHT22;34227;51.840;4.146;2023-08-06T12:36:46;21.90;93.80
48416;DHT22;34227;51.840;4.146;2023-08-06T12:39:12;21.90;93.90
48416;DHT22;34227;51.840;4.146;2023-08-06T12:41:37;21.80;94.00
48416;DHT22;34227;51.840;4.146;2023-08-06T12:44:03;21.80;94.10
48416;DHT22;34227;51.840;4.146;2023-08-06T12:46:28;21.80;94.10
48416;DHT22;34227;51.840;4.146;2023-08-06T12:48:54;21.70;94.20
48416;DHT22;34227;51.840;4.146;2023-08-06T12:51:19;21.60;94.30
48416;DHT22;34227;51.840;4.146;2023-08-06T12:53:45;21.60;94.40
48416;DHT22;34227;51.840;4.146;2023-08-06T12:56:11;21.50;94.80
48416;DHT22;34227;51.840;4.146;2023-08-06T12:58:36;21.40;94.50
48416;DHT22;34227;51.840;4.146;2023-08-06T13:01:02;21.30;94.60
48416;DHT22;34227;51.840;4.146;2023-08-06T13:03:27;21.20;94.50
48416;DHT22;34227;51.840;4.146;2023-08-06T13:05:55;21.10;94.70
48416;DHT22;34227;51.840;4.146;2023-08-06T13:08:21;21.00;94.80
48416;DHT22;34227;51.840;4.146;2023-08-06T13:10:46;20.90;94.90
48416;DHT22;34227;51.840;4.146;2023-08-06T13:13:12;20.70;94.90
48416;DHT22;34227;51.840;4.146;2023-08-06T13:15:37;20.60;95.00
48416;DHT22;34227;51.840;4.146;2023-08-06T13:18:03;20.50;95.10
48416;DHT22;34227;51.840;4.146;2023-08-06T13:20:30;20.40;95.20
48416;DHT22;34227;51.840;4.146;2023-08-06T13:22:55;20.30;95.30
48416;DHT22;34227;51.840;4.146;2023-08-06T13:25:21;20.20;95.30
48416;DHT22;34227;51.840;4.146;2023-08-06T13:27:47;20.20;95.40
48416;DHT22;34227;51.840;4.146;2023-08-06T13:30:13;20.10;95.50
48416;DHT22;34227;51.840;4.146;2023-08-06T13:32:38;20.00;95.50
48416;DHT22;34227;51.840;4.146;2023-08-06T13:35:04;19.90;95.70
48416;DHT22;34227;51.840;4.146;2023-08-06T13:37:30;19.80;95.70
48416;DHT22;34227;51.840;4.146;2023-08-06T13:39:55;19.70;95.70
48416;DHT22;34227;51.840;4.146;2023-08-06T13:42:21;19.60;95.70
48416;DHT22;34227;51.840;4.146;2023-08-06T13:44:50;19.60;95.90
48416;DHT22;34227;51.840;4.146;2023-08-06T13:47:18;19.40;96.10
48416;DHT22;34227;51.840;4.146;2023-08-06T13:49:43;19.40;96.10
48416;DHT22;34227;51.840;4.146;2023-08-06T13:52:09;19.30;96.10
48416;DHT22;34227;51.840;4.146;2023-08-06T13:54:34;19.20;96.30
48416;DHT22;34227;51.840;4.146;2023-08-06T13:57:00;19.10;96.40
48416;DHT22;34227;51.840;4.146;2023-08-06T13:59:28;19.00;96.40
48416;DHT22;34227;51.840;4.146;2023-08-06T14:01:54;19.00;96.60
48416;DHT22;34227;51.840;4.146;2023-08-06T14:04:22;18.90;96.60
48416;DHT22;34227;51.840;4.146;2023-08-06T14:06:47;18.80;96.60
48416;DHT22;34227;51.840;4.146;2023-08-06T14:09:13;18.80;96.80
48416;DHT22;34227;51.840;4.146;2023-08-06T14:11:43;18.70;96.80
48416;DHT22;34227;51.840;4.146;2023-08-06T14:14:09;18.70;96.90
48416;DHT22;34227;51.840;4.146;2023-08-06T14:16:34;18.60;97.00
48416;DHT22;34227;51.840;4.146;2023-08-06T14:19:00;18.50;97.10
48416;DHT22;34227;51.840;4.146;2023-08-06T14:21:26;18.50;97.00
48416;DHT22;34227;51.840;4.146;2023-08-06T14:23:51;18.40;97.10
48416;DHT22;34227;51.840;4.146;2023-08-06T14:26:17;18.40;97.30
48416;DHT22;34227;51.840;4.146;2023-08-06T14:28:42;18.30;97.30
48416;DHT22;34227;51.840;4.146;2023-08-06T14:31:08;18.30;97.40
48416;DHT22;34227;51.840;4.146;2023-08-06T14:33:33;18.30;97.80
48416;DHT22;34227;51.840;4.146;2023-08-06T14:35:59;18.20;97.70
48416;DHT22;34227;51.840;4.146;2023-08-06T14:38:25;18.20;97.60
48416;DHT22;34227;51.840;4.146;2023-08-06T14:40:50;18.10;97.60
48416;DHT22;34227;51.840;4.146;2023-08-06T14:43:16;18.10;97.70
48416;DHT22;34227;51.840;4.146;2023-08-06T14:45:41;18.10;97.80
48416;DHT22;34227;51.840;4.146;2023-08-06T14:48:07;18.10;97.80
48416;DHT22;34227;51.840;4.146;2023-08-06T14:50:33;18.00;97.90
48416;DHT22;34227;51.840;4.146;2023-08-06T14:52:58;18.00;97.90
48416;DHT22;34227;51.840;4.146;2023-08-06T14:55:27;17.90;97.80
48416;DHT22;34227;51.840;4.146;2023-08-06T14:57:53;18.00;97.80
48416;DHT22;34227;51.840;4.146;2023-08-06T15:00:22;17.90;97.90
48416;DHT22;34227;51.840;4.146;2023-08-06T15:02:49;17.90;98.00
48416;DHT22;34227;51.840;4.146;2023-08-06T15:05:15;17.90;98.00
48416;DHT22;34227;51.840;4.146;2023-08-06T15:07:41;17.80;98.00
48416;DHT22;34227;51.840;4.146;2023-08-06T15:10:06;17.80;98.10
48416;DHT22;34227;51.840;4.146;2023-08-06T15:12:32;17.80;98.00
48416;DHT22;34227;51.840;4.146;2023-08-06T15:14:58;17.80;98.00
48416;DHT22;34227;51.840;4.146;2023-08-06T15:17:24;17.80;98.00
48416;DHT22;34227;51.840;4.146;2023-08-06T15:19:49;17.70;98.00
48416;DHT22;34227;51.840;4.146;2023-08-06T15:22:15;17.70;98.00
48416;DHT22;34227;51.840;4.146;2023-08-06T15:24:40;17.70;98.10
48416;DHT22;34227;51.840;4.146;2023-08-06T15:27:08;17.70;98.10
48416;DHT22;34227;51.840;4.146;2023-08-06T15:29:33;17.70;98.10
48416;DHT22;34227;51.840;4.146;2023-08-06T15:31:59;17.60;98.20
48416;DHT22;34227;51.840;4.146;2023-08-06T15:34:24;17.60;98.10